Sturdivant, Missouri
Current Conditions -  °F | °C
As of 11:53 PM on Tuesday 21 Oct 2014 (Local Time) from KCGI Reporting Station
Clear Clear  
Wind Chill: 51°   Ceiling: Unl
Heat Index: 51°   Visibility: 10mi
Dew Point: 44°   Wind: 7mph
Humidity: 77%   Direction: 50°NE
Pressure: 30.17"   Gusts: NA
Location:  37.05°N, 90.01°W
Report Text: KCGI 220453Z AUTO 05006KT 10SM CLR 11/07 A3017 RMK AO2 SLP216 T01060067 TSNO
Loading
Personal Weather Stations






























Interactive Weather Map
Tropical Storm Tracking
New forecast layout! Learn more

10-Day Weather Forecast

Advertisements
Track Severe Weather on mobile